Time;durP1;ratioP1;P1;durP2;ratioP2;P2;SDS_P1;SDS_P2;PMS_P1;PMS_P2;Temp;Humidity;BMP_temperature;BMP_pressure;BME280_temperature;BME280_humidity;BME280_pressure;Samples;Min_cycle;Max_cycle;Signal;HPM_P1;HPM_P2
2021/12/31 00:00:35;;;;;;;0.30;0.20;;;;;;;14.23;100.00;100826.13;5027303;28;20505;-50
2021/12/31 00:03:02;;;;;;;0.30;0.20;;;;;;;14.11;100.00;100826.56;5021092;28;20499;-49
2021/12/31 00:05:29;;;;;;;0.30;0.20;;;;;;;14.13;100.00;100828.28;5029649;28;20968;-50
2021/12/31 00:07:55;;;;;;;0.30;0.20;;;;;;;14.10;100.00;100823.00;5032314;28;20455;-49
2021/12/31 00:10:22;;;;;;;0.30;0.20;;;;;;;14.10;100.00;100824.81;5027987;28;20920;-48
2021/12/31 00:12:49;;;;;;;0.30;0.20;;;;;;;14.07;100.00;100827.59;5019824;28;20578;-49
2021/12/31 00:15:16;;;;;;;0.30;0.20;;;;;;;14.07;100.00;100833.81;5031772;28;20449;-49
2021/12/31 00:17:42;;;;;;;0.30;0.20;;;;;;;14.00;100.00;100828.75;5031828;28;20539;-49
2021/12/31 00:20:16;;;;;;;0.30;0.20;;;;;;;14.02;100.00;100824.22;5018464;28;20498;-49
2021/12/31 00:23:03;;;;;;;0.30;0.20;;;;;;;13.96;100.00;100835.09;5014506;28;20596;-49
2021/12/31 00:25:40;;;;;;;0.30;0.20;;;;;;;13.83;100.00;100834.63;5029154;28;20447;-48
2021/12/31 00:28:08;;;;;;;0.30;0.20;;;;;;;13.86;100.00;100830.09;5031663;28;20422;-49
2021/12/31 00:30:35;;;;;;;0.30;0.20;;;;;;;13.90;100.00;100830.84;5019600;28;20480;-49
2021/12/31 00:33:03;;;;;;;0.30;0.20;;;;;;;14.05;100.00;100827.66;5020942;28;20503;-48
2021/12/31 00:35:32;;;;;;;0.30;0.20;;;;;;;13.96;100.00;100835.97;5031956;28;20497;-48
2021/12/31 00:37:59;;;;;;;0.30;0.20;;;;;;;13.93;100.00;100818.25;5031735;28;20501;-49
2021/12/31 00:40:26;;;;;;;0.30;0.20;;;;;;;14.10;100.00;100825.69;5021598;28;21019;-49
2021/12/31 00:42:53;;;;;;;0.30;0.20;;;;;;;14.00;100.00;100818.94;5031722;28;20508;-49
2021/12/31 00:45:21;;;;;;;0.30;0.30;;;;;;;13.98;100.00;100817.22;5031865;28;20853;-49
2021/12/31 00:47:48;;;;;;;0.30;0.20;;;;;;;14.05;100.00;100816.97;5031777;28;20444;-49
2021/12/31 00:50:16;;;;;;;0.30;0.20;;;;;;;13.90;100.00;100818.38;5026629;28;20452;-49
2021/12/31 00:52:43;;;;;;;0.30;0.20;;;;;;;14.09;100.00;100812.38;5031526;28;20454;-50
2021/12/31 00:55:11;;;;;;;0.30;0.20;;;;;;;14.09;100.00;100821.28;5015408;28;21032;-49
2021/12/31 00:57:38;;;;;;;0.30;0.20;;;;;;;14.11;100.00;100813.19;5028952;28;20453;-49
2021/12/31 01:00:08;;;;;;;0.30;0.20;;;;;;;14.03;100.00;100810.81;5026859;28;20996;-49
2021/12/31 01:02:34;;;;;;;0.30;0.20;;;;;;;13.89;100.00;100805.06;5020697;28;20802;-49
2021/12/31 01:05:03;;;;;;;0.30;0.20;;;;;;;13.89;100.00;100805.06;5031523;28;20441;-51
2021/12/31 01:07:31;;;;;;;0.30;0.20;;;;;;;13.87;100.00;100794.41;5027975;28;20999;-49
2021/12/31 01:10:00;;;;;;;0.30;0.20;;;;;;;14.04;100.00;100803.66;5023520;28;20461;-49
2021/12/31 01:12:26;;;;;;;0.30;0.20;;;;;;;14.04;100.00;100807.19;5031146;28;21066;-49
2021/12/31 01:15:07;;;;;;;0.30;0.20;;;;;;;13.91;100.00;100809.41;5031724;28;20497;-50
2021/12/31 01:18:04;;;;;;;0.30;0.20;;;;;;;13.96;100.00;100808.38;5026985;28;20459;-49
2021/12/31 01:20:30;;;;;;;0.30;0.20;;;;;;;13.85;100.00;100808.75;5029932;28;20905;-49
2021/12/31 01:22:57;;;;;;;0.30;0.20;;;;;;;13.83;100.00;100806.13;5031588;28;20504;-48
2021/12/31 01:25:24;;;;;;;0.30;0.20;;;;;;;13.75;100.00;100808.19;5028388;28;20458;-49
2021/12/31 01:27:51;;;;;;;0.30;0.20;;;;;;;13.82;100.00;100807.03;5030242;28;20431;-49
2021/12/31 01:30:19;;;;;;;0.30;0.20;;;;;;;13.78;100.00;100809.88;5033437;28;20973;-49
2021/12/31 01:32:49;;;;;;;0.30;0.20;;;;;;;13.74;100.00;100810.91;5035105;28;20438;-49
2021/12/31 01:35:16;;;;;;;0.30;0.20;;;;;;;13.76;100.00;100809.06;5034858;28;20427;-49
2021/12/31 01:37:43;;;;;;;0.30;0.20;;;;;;;13.77;100.00;100814.34;5029245;28;20931;-52
2021/12/31 01:40:10;;;;;;;0.30;0.20;;;;;;;13.80;100.00;100819.59;5008531;28;20514;-49
2021/12/31 01:42:37;;;;;;;0.30;0.20;;;;;;;13.89;100.00;100819.28;5023101;28;20513;-50
2021/12/31 01:45:05;;;;;;;0.30;0.20;;;;;;;13.90;100.00;100825.50;5019095;28;20472;-49
2021/12/31 01:50:17;;;;;;;0.30;0.20;;;;;;;13.91;100.00;100840.63;5034752;28;20436;-48
2021/12/31 01:52:44;;;;;;;0.30;0.20;;;;;;;14.00;100.00;100828.75;5034386;28;20500;-49
2021/12/31 01:55:12;;;;;;;0.30;0.20;;;;;;;14.01;100.00;100827.81;5020766;28;20427;-49
2021/12/31 01:57:41;;;;;;;0.30;0.20;;;;;;;14.00;100.00;100824.28;5031444;28;20427;-49
2021/12/31 02:00:09;;;;;;;0.30;0.20;;;;;;;13.94;100.00;100822.66;5034543;28;20487;-49
2021/12/31 02:02:36;;;;;;;0.40;0.40;;;;;;;13.92;100.00;100820.97;5023402;28;20476;-49
2021/12/31 02:05:04;;;;;;;0.30;0.20;;;;;;;13.82;100.00;100832.91;5021321;28;20980;-49
2021/12/31 02:07:37;;;;;;;0.30;0.20;;;;;;;13.89;100.00;100838.00;5032920;28;20444;-49
2021/12/31 02:10:04;;;;;;;0.30;0.20;;;;;;;13.89;100.00;100832.66;5031508;28;20911;-48
2021/12/31 02:12:32;;;;;;;0.30;0.20;;;;;;;13.93;100.00;100833.41;5033230;28;20515;-49
2021/12/31 02:14:59;;;;;;;0.30;0.20;;;;;;;13.93;100.00;100828.94;5033142;28;20893;-49
2021/12/31 02:17:25;;;;;;;0.30;0.20;;;;;;;14.00;100.00;100831.44;5033390;28;20439;-49
2021/12/31 02:20:01;;;;;;;0.30;0.20;;;;;;;13.97;100.00;100836.84;5033985;28;20462;-49
2021/12/31 02:22:28;;;;;;;0.30;0.20;;;;;;;13.98;100.00;100826.13;5009287;28;20475;-51
2021/12/31 02:24:56;;;;;;;0.30;0.20;;;;;;;13.99;100.00;100837.69;5012694;28;20448;-49
2021/12/31 02:27:24;;;;;;;0.30;0.20;;;;;;;13.97;100.00;100829.69;5013301;28;20464;-49
2021/12/31 02:29:51;;;;;;;0.30;0.20;;;;;;;13.93;100.00;100844.09;5024574;28;20442;-50
2021/12/31 02:32:18;;;;;;;0.30;0.20;;;;;;;13.94;100.00;100844.06;5025633;28;20472;-49
2021/12/31 02:34:47;;;;;;;0.30;0.20;;;;;;;13.89;100.00;100839.78;5031125;28;20427;-48
2021/12/31 02:37:14;;;;;;;0.30;0.30;;;;;;;13.91;100.00;100841.50;5033523;28;20447;-50
2021/12/31 02:39:43;;;;;;;0.30;0.20;;;;;;;13.89;100.00;100847.81;5033638;28;20605;-49
2021/12/31 02:42:10;;;;;;;0.30;0.20;;;;;;;14.04;100.00;100841.94;5033681;28;20518;-49
2021/12/31 02:44:37;;;;;;;0.30;0.20;;;;;;;13.98;100.00;100842.16;5032237;28;20456;-50
2021/12/31 02:47:06;;;;;;;0.50;0.50;;;;;;;13.97;100.00;100851.09;5033536;28;20907;-49
2021/12/31 02:49:36;;;;;;;0.30;0.20;;;;;;;14.07;100.00;100849.00;5023893;28;20450;-49
2021/12/31 02:52:05;;;;;;;0.40;0.40;;;;;;;14.08;100.00;100851.59;5033558;28;20450;-49
2021/12/31 02:54:34;;;;;;;0.30;0.20;;;;;;;14.00;100.00;100858.16;5025370;28;20481;-49
2021/12/31 02:57:01;;;;;;;0.30;0.20;;;;;;;14.02;100.00;100856.31;5025546;28;20423;-51
2021/12/31 02:59:28;;;;;;;0.30;0.20;;;;;;;14.03;100.00;100858.91;5020448;28;20560;-49
2021/12/31 03:01:55;;;;;;;0.30;0.20;;;;;;;13.94;100.00;100844.06;5023571;28;20472;-49
2021/12/31 03:04:24;;;;;;;0.30;0.20;;;;;;;13.94;100.00;100846.72;5032225;28;20451;-49
2021/12/31 03:06:53;;;;;;;0.50;0.50;;;;;;;13.98;100.00;100843.94;5019884;28;20461;-49
2021/12/31 03:09:23;;;;;;;0.30;0.20;;;;;;;13.93;100.00;100836.09;5033295;28;20452;-48
2021/12/31 03:11:55;;;;;;;0.30;0.20;;;;;;;13.94;100.00;100829.81;5032506;28;20969;-50
2021/12/31 03:14:23;;;;;;;0.30;0.20;;;;;;;13.97;100.00;100832.38;5032996;28;20914;-49
2021/12/31 03:16:50;;;;;;;0.30;0.20;;;;;;;13.99;100.00;100832.34;5032836;28;20510;-52
2021/12/31 03:19:17;;;;;;;0.30;0.20;;;;;;;13.96;100.00;100827.97;5025065;28;20487;-48
2021/12/31 03:21:44;;;;;;;0.30;0.20;;;;;;;13.98;100.00;100818.13;5028245;28;21058;-49
2021/12/31 03:24:11;;;;;;;0.30;0.20;;;;;;;13.91;100.00;100817.44;5026176;28;20455;-49
2021/12/31 03:26:37;;;;;;;0.93;0.93;;;;;;;13.82;100.00;100815.06;5020820;28;20456;-48
2021/12/31 03:29:05;;;;;;;0.70;0.70;;;;;;;13.78;100.00;100807.22;5032825;28;20452;-49
2021/12/31 03:31:31;;;;;;;0.30;0.20;;;;;;;13.86;100.00;100800.69;5032564;28;20433;-48
2021/12/31 03:33:58;;;;;;;0.30;0.20;;;;;;;13.80;100.00;100810.69;5032759;28;20449;-49
2021/12/31 03:36:25;;;;;;;0.30;0.20;;;;;;;13.82;100.00;100804.38;5030403;28;20431;-49
2021/12/31 03:38:51;;;;;;;0.30;0.20;;;;;;;13.81;100.00;100801.75;5032858;28;20446;-49
2021/12/31 03:41:18;;;;;;;0.30;0.20;;;;;;;13.75;100.00;100801.97;5032537;28;20548;-48
2021/12/31 03:43:45;;;;;;;0.30;0.20;;;;;;;13.74;100.00;100794.88;5032500;28;20476;-48
2021/12/31 03:46:11;;;;;;;0.70;0.70;;;;;;;13.72;100.00;100792.28;5032442;28;20506;-48
2021/12/31 03:48:38;;;;;;;0.30;0.20;;;;;;;13.71;100.00;100790.53;5032297;28;20897;-49
2021/12/31 03:51:05;;;;;;;0.30;0.20;;;;;;;13.72;100.00;100786.94;5018836;28;20460;-49
2021/12/31 03:53:31;;;;;;;0.30;0.20;;;;;;;13.73;100.00;100787.78;5023369;28;20889;-49
2021/12/31 03:55:58;;;;;;;10.80;2.73;;;;;;;13.71;100.00;100787.84;5019266;28;20448;-49
2021/12/31 03:58:24;;;;;;;0.30;0.30;;;;;;;13.79;100.00;100787.56;5032373;28;20941;-50
2021/12/31 04:00:51;;;;;;;0.50;0.50;;;;;;;13.63;100.00;100774.75;5031234;28;20494;-49
2021/12/31 04:03:18;;;;;;;0.30;0.20;;;;;;;13.76;100.00;100791.22;5022955;28;20450;-48
2021/12/31 04:05:45;;;;;;;0.30;0.20;;;;;;;13.61;100.00;100783.72;5017762;28;20427;-49
2021/12/31 04:08:12;;;;;;;0.30;0.20;;;;;;;13.61;100.00;100773.91;5023334;28;20539;-48
2021/12/31 04:10:38;;;;;;;0.50;0.50;;;;;;;13.60;100.00;100772.19;5024722;28;20437;-49
2021/12/31 04:13:05;;;;;;;0.30;0.30;;;;;;;13.54;100.00;100779.50;5023410;28;20489;-49
2021/12/31 04:15:31;;;;;;;0.30;0.20;;;;;;;13.51;100.00;100774.25;5032299;28;20461;-48
2021/12/31 04:17:58;;;;;;;0.30;0.20;;;;;;;13.44;100.00;100764.72;5032128;28;20426;-48
2021/12/31 04:20:41;;;;;;;0.30;0.20;;;;;;;13.17;100.00;100758.44;5023490;28;20971;-49
2021/12/31 04:23:14;;;;;;;0.30;0.20;;;;;;;13.17;100.00;100753.97;5032002;28;20446;-49
2021/12/31 04:25:41;;;;;;;0.30;0.20;;;;;;;12.98;100.00;100748.31;5023896;28;20435;-50
2021/12/31 04:28:09;;;;;;;0.30;0.20;;;;;;;12.90;100.00;100746.84;5026823;28;21014;-49
2021/12/31 04:30:36;;;;;;;0.30;0.20;;;;;;;12.75;100.00;100743.72;5023697;28;20456;-49
2021/12/31 04:33:03;;;;;;;0.30;0.20;;;;;;;12.52;100.00;100751.50;5027139;28;20513;-49
2021/12/31 04:35:29;;;;;;;0.30;0.20;;;;;;;12.49;100.00;100753.41;5032049;28;20427;-48
2021/12/31 04:37:56;;;;;;;0.30;0.20;;;;;;;12.07;100.00;100751.91;5031823;28;20451;-49
2021/12/31 04:40:23;;;;;;;0.30;0.20;;;;;;;12.02;100.00;100764.44;5025909;28;20545;-50
2021/12/31 04:42:50;;;;;;;0.30;0.20;;;;;;;11.92;100.00;100760.28;5027424;28;20890;-49
2021/12/31 04:45:17;;;;;;;0.30;0.30;;;;;;;11.85;100.00;100756.03;5032113;28;20452;-48
2021/12/31 04:47:44;;;;;;;0.30;0.20;;;;;;;11.81;100.00;100765.03;5031882;28;20500;-49
2021/12/31 04:50:11;;;;;;;0.30;0.20;;;;;;;11.61;100.00;100757.50;5027665;28;20478;-49
2021/12/31 04:52:40;;;;;;;0.30;0.20;;;;;;;11.63;100.00;100760.13;5028005;28;20446;-49
2021/12/31 04:55:07;;;;;;;0.30;0.20;;;;;;;11.37;100.00;100752.78;5014840;28;20448;-48
2021/12/31 04:57:34;;;;;;;0.30;0.20;;;;;;;11.41;100.00;100754.47;5028537;28;20505;-49
2021/12/31 05:00:01;;;;;;;4.23;3.33;;;;;;;11.38;100.00;100760.75;5026086;28;20516;-48
2021/12/31 05:02:27;;;;;;;0.30;0.20;;;;;;;11.30;100.00;100753.84;5024737;28;20480;-48
2021/12/31 05:04:54;;;;;;;0.30;0.20;;;;;;;11.19;100.00;100752.31;5035665;28;20447;-48
2021/12/31 05:07:21;;;;;;;0.30;0.20;;;;;;;11.11;100.00;100754.31;5035359;28;20547;-48
2021/12/31 05:09:47;;;;;;;0.30;0.20;;;;;;;10.97;100.00;100767.03;5024461;28;20456;-49
2021/12/31 05:12:20;;;;;;;0.30;0.20;;;;;;;10.84;100.00;100763.78;5032590;28;20505;-48
2021/12/31 05:14:47;;;;;;;0.30;0.20;;;;;;;10.84;100.00;100763.78;5035587;28;20521;-48
2021/12/31 05:17:14;;;;;;;0.30;0.20;;;;;;;10.84;100.00;100768.22;5035288;28;20447;-48
2021/12/31 05:19:43;;;;;;;0.90;0.90;;;;;;;10.77;100.00;100770.13;5025072;28;20453;-49
2021/12/31 05:22:11;;;;;;;0.30;0.20;;;;;;;10.96;100.00;100776.81;5031097;28;20475;-48
2021/12/31 05:24:39;;;;;;;0.30;0.20;;;;;;;10.65;100.00;100768.59;5025129;28;20528;-51
2021/12/31 05:27:06;;;;;;;0.30;0.20;;;;;;;10.75;100.00;100763.97;5034824;28;20889;-51
2021/12/31 05:29:34;;;;;;;0.30;0.20;;;;;;;10.48;100.00;100764.56;5035197;28;20448;-51
2021/12/31 05:32:01;;;;;;;0.30;0.20;;;;;;;10.38;100.00;100775.38;5008772;28;20495;-51
2021/12/31 05:34:27;;;;;;;0.30;0.20;;;;;;;10.33;100.00;100773.72;5027811;28;20912;-51
2021/12/31 05:36:54;;;;;;;0.30;0.20;;;;;;;10.23;100.00;100774.78;5035201;28;20452;-51
2021/12/31 05:39:21;;;;;;;0.30;0.20;;;;;;;10.05;100.00;100786.63;5026484;28;20460;-51
2021/12/31 05:41:47;;;;;;;0.30;0.20;;;;;;;9.99;100.00;100776.09;5005558;28;20542;-52
2021/12/31 05:44:14;;;;;;;2.70;2.30;;;;;;;10.09;100.00;100785.66;5029345;28;20456;-51
2021/12/31 05:46:44;;;;;;;0.30;0.20;;;;;;;10.02;100.00;100789.34;5034777;28;20949;-52
2021/12/31 05:49:11;;;;;;;0.30;0.20;;;;;;;9.90;100.00;100798.41;5022220;28;20963;-52
2021/12/31 05:51:38;;;;;;;0.30;0.20;;;;;;;10.02;100.00;100798.19;5024346;28;20486;-52
2021/12/31 05:54:05;;;;;;;0.30;0.20;;;;;;;9.81;100.00;100798.53;5020199;28;20456;-52
2021/12/31 05:56:33;;;;;;;0.30;0.20;;;;;;;9.65;100.00;100802.38;5022740;28;20505;-52
2021/12/31 05:58:59;;;;;;;0.30;0.20;;;;;;;9.66;100.00;100790.84;5033390;28;20956;-51
2021/12/31 06:01:26;;;;;;;0.30;0.20;;;;;;;9.76;100.00;100809.25;5000293;28;20523;-51
2021/12/31 06:03:53;;;;;;;0.30;0.20;;;;;;;9.67;100.00;100813.84;5024444;28;20488;-51
2021/12/31 06:06:19;;;;;;;0.30;0.20;;;;;;;9.81;100.00;100801.19;5029426;28;20506;-51
2021/12/31 06:08:46;;;;;;;0.30;0.20;;;;;;;9.44;100.00;100808.88;5017524;28;20461;-51
2021/12/31 06:11:13;;;;;;;3.90;1.03;;;;;;;9.58;100.00;100800.69;5033091;28;20537;-51
2021/12/31 06:13:40;;;;;;;0.30;0.20;;;;;;;9.43;100.00;100794.75;5022474;28;20484;-51
2021/12/31 06:16:06;;;;;;;0.30;0.20;;;;;;;9.39;100.00;100789.50;5017089;28;20487;-51
2021/12/31 06:18:33;;;;;;;0.30;0.20;;;;;;;9.25;100.00;100783.53;5020101;28;20491;-51
2021/12/31 06:21:00;;;;;;;0.30;0.20;;;;;;;9.24;100.00;100776.50;5026792;28;20537;-50
2021/12/31 06:23:27;;;;;;;0.30;0.30;;;;;;;9.04;100.00;100782.94;5018380;28;20480;-51
2021/12/31 06:25:54;;;;;;;0.30;0.20;;;;;;;9.10;100.00;100774.91;5029047;28;20455;-51
2021/12/31 06:28:20;;;;;;;0.30;0.20;;;;;;;8.89;100.00;100783.16;5019533;28;20452;-51
2021/12/31 06:30:47;;;;;;;0.30;0.20;;;;;;;8.76;100.00;100777.16;5025742;28;20510;-51
2021/12/31 06:33:14;;;;;;;0.30;0.20;;;;;;;8.84;100.00;100787.66;5032635;28;20521;-51
2021/12/31 06:35:40;;;;;;;0.40;0.30;;;;;;;8.75;100.00;100779.81;5033980;28;20448;-51
2021/12/31 06:38:07;;;;;;;0.30;0.20;;;;;;;8.82;100.00;100779.75;5032446;28;20460;-51
2021/12/31 06:40:35;;;;;;;0.30;0.20;;;;;;;8.82;100.00;100790.34;5020069;28;20941;-51
2021/12/31 06:43:02;;;;;;;0.30;0.20;;;;;;;8.84;100.00;100798.28;5018821;28;20479;-50
2021/12/31 06:45:29;;;;;;;0.30;0.20;;;;;;;9.00;100.00;100804.22;5024742;28;21014;-51
2021/12/31 06:47:56;;;;;;;0.30;0.20;;;;;;;9.10;100.00;100809.41;5033761;28;20459;-51
2021/12/31 06:50:28;;;;;;;0.30;0.20;;;;;;;9.09;100.00;100805.00;5033605;28;20447;-51
2021/12/31 06:52:55;;;;;;;0.30;0.20;;;;;;;9.26;100.00;100798.56;5018884;28;20467;-51
2021/12/31 06:55:21;;;;;;;0.60;0.57;;;;;;;9.23;100.00;100793.31;5013564;28;20453;-51
2021/12/31 06:57:49;;;;;;;0.30;0.20;;;;;;;9.15;100.00;100796.94;5018789;28;20459;-50
2021/12/31 07:00:17;;;;;;;0.30;0.20;;;;;;;9.13;100.00;100801.38;5022237;28;20547;-51
2021/12/31 07:02:44;;;;;;;0.97;0.93;;;;;;;9.04;100.00;100801.50;5021336;28;20562;-51
2021/12/31 07:05:10;;;;;;;0.30;0.20;;;;;;;8.96;100.00;100802.53;5007347;28;20456;-51
2021/12/31 07:07:37;;;;;;;0.30;0.20;;;;;;;9.02;100.00;100799.78;5030702;28;20495;-51
2021/12/31 07:10:06;;;;;;;0.30;0.20;;;;;;;8.78;100.00;100803.66;5022105;28;20515;-51
2021/12/31 07:12:33;;;;;;;0.30;0.20;;;;;;;8.89;100.00;100801.72;5024107;28;20545;-52
2021/12/31 07:14:59;;;;;;;0.30;0.20;;;;;;;8.72;100.00;100795.78;5025547;28;20490;-51
2021/12/31 07:17:28;;;;;;;0.30;0.20;;;;;;;8.77;100.00;100792.19;5014241;28;20427;-51
2021/12/31 07:19:55;;;;;;;0.30;0.20;;;;;;;8.65;100.00;100799.41;5017599;28;20456;-51
2021/12/31 07:22:22;;;;;;;0.30;0.20;;;;;;;8.53;100.00;100793.38;5026852;28;20981;-51
2021/12/31 07:24:48;;;;;;;0.30;0.20;;;;;;;8.65;100.00;100791.47;5025414;28;20431;-51
2021/12/31 07:27:15;;;;;;;0.30;0.20;;;;;;;8.57;100.00;100795.06;5016539;28;20507;-51
2021/12/31 07:29:41;;;;;;;0.30;0.20;;;;;;;8.32;100.00;100791.78;5020676;28;20485;-51
2021/12/31 07:32:08;;;;;;;0.30;0.20;;;;;;;8.26;100.00;100783.94;5028694;28;20538;-51
2021/12/31 07:34:35;;;;;;;0.30;0.20;;;;;;;8.30;100.00;100784.75;5018097;28;20514;-51
2021/12/31 07:37:01;;;;;;;0.30;0.20;;;;;;;8.36;100.00;100789.13;5019130;28;20456;-52
2021/12/31 07:39:31;;;;;;;0.30;0.20;;;;;;;8.31;100.00;100786.53;5014051;28;20507;-51
2021/12/31 07:41:58;;;;;;;0.30;0.20;;;;;;;8.45;100.00;100784.63;5022456;28;20491;-51
2021/12/31 07:44:25;;;;;;;0.30;0.20;;;;;;;8.53;100.00;100789.84;5019958;28;20467;-51
2021/12/31 07:46:52;;;;;;;0.30;0.20;;;;;;;8.48;100.00;100789.00;5023561;28;20458;-50
2021/12/31 07:49:18;;;;;;;0.30;0.20;;;;;;;8.51;100.00;100792.50;5021035;28;20459;-50
2021/12/31 07:51:45;;;;;;;0.30;0.20;;;;;;;8.50;100.00;100790.75;5016029;28;20894;-50
2021/12/31 07:54:12;;;;;;;0.30;0.20;;;;;;;8.43;100.00;100794.38;5015436;28;20465;-50
2021/12/31 07:56:38;;;;;;;0.30;0.20;;;;;;;8.42;100.00;100795.25;5021415;28;20480;-50
2021/12/31 07:59:05;;;;;;;0.30;0.20;;;;;;;8.38;100.00;100801.50;5019182;28;20482;-50
2021/12/31 08:01:31;;;;;;;0.30;0.20;;;;;;;8.30;100.00;100804.19;5025727;28;20526;-50
2021/12/31 08:03:58;;;;;;;0.30;0.20;;;;;;;8.52;100.00;100802.22;5014410;28;20456;-50
2021/12/31 08:06:25;;;;;;;0.30;0.20;;;;;;;8.61;100.00;100802.06;5015664;28;20507;-50
2021/12/31 08:08:52;;;;;;;0.30;0.20;;;;;;;8.41;100.00;100804.09;5020209;28;20875;-50
2021/12/31 08:11:18;;;;;;;0.30;0.20;;;;;;;8.59;100.00;100805.66;5014727;28;20452;-50
2021/12/31 08:13:45;;;;;;;0.30;0.20;;;;;;;8.52;100.00;100796.03;5013728;28;20906;-51
2021/12/31 08:16:11;;;;;;;0.30;0.20;;;;;;;8.44;100.00;100797.88;5021703;28;20460;-50
2021/12/31 08:18:38;;;;;;;0.30;0.20;;;;;;;8.57;100.00;100804.78;5018959;28;20473;-50
2021/12/31 08:21:06;;;;;;;0.30;0.20;;;;;;;8.82;100.00;100798.28;5018829;28;20515;-50
2021/12/31 08:23:33;;;;;;;0.30;0.20;;;;;;;9.00;100.00;100799.81;5018606;28;20503;-51
2021/12/31 08:26:01;;;;;;;0.30;0.20;;;;;;;8.98;100.00;100808.69;5023417;28;21027;-51
2021/12/31 08:28:28;;;;;;;0.30;0.20;;;;;;;9.03;100.00;100804.19;5019531;28;20869;-50
2021/12/31 08:30:55;;;;;;;0.30;0.20;;;;;;;9.14;100.00;100800.47;5020786;28;20451;-50
2021/12/31 08:33:22;;;;;;;0.30;0.20;;;;;;;9.08;100.00;100813.84;5015665;28;20471;-50
2021/12/31 08:35:49;;;;;;;0.30;0.20;;;;;;;9.23;100.00;100804.78;5020051;28;20823;-50
2021/12/31 08:38:15;;;;;;;0.30;0.20;;;;;;;9.35;100.00;100814.34;5025350;28;21003;-50
2021/12/31 08:40:42;;;;;;;0.30;0.20;;;;;;;9.34;100.00;100810.81;5030944;28;20549;-51
2021/12/31 08:43:09;;;;;;;0.30;0.20;;;;;;;9.54;100.00;100807.84;5009329;28;20479;-50
2021/12/31 08:45:35;;;;;;;0.30;0.20;;;;;;;9.53;100.00;100815.81;5017001;28;20463;-50
2021/12/31 08:48:04;;;;;;;0.30;0.20;;;;;;;9.72;100.00;100812.84;5031174;28;20457;-50
2021/12/31 08:50:31;;;;;;;0.30;0.20;;;;;;;9.91;100.00;100818.72;5016096;28;20510;-51
2021/12/31 08:52:58;;;;;;;0.30;0.20;;;;;;;10.15;100.00;100817.44;5019059;28;20482;-51
2021/12/31 08:55:25;;;;;;;0.30;0.30;;;;;;;10.29;100.00;100812.75;5015507;28;20422;-51
2021/12/31 08:57:52;;;;;;;0.30;0.20;;;;;;;10.41;100.00;100810.75;5034857;28;20509;-50
2021/12/31 09:00:18;;;;;;;0.30;0.20;;;;;;;10.65;100.00;100819.13;5025234;28;20418;-50
2021/12/31 09:02:46;;;;;;;0.30;0.20;;;;;;;10.68;100.00;100813.72;5025005;28;20573;-51
2021/12/31 09:05:13;;;;;;;0.30;0.20;;;;;;;10.57;100.00;100799.81;5024967;28;20955;-51
2021/12/31 09:07:40;;;;;;;0.30;0.20;;;;;;;10.57;100.00;100796.28;5032780;28;20456;-51
2021/12/31 09:10:08;;;;;;;0.30;0.20;;;;;;;10.58;100.00;100796.25;5023615;28;20978;-50
2021/12/31 09:12:36;;;;;;;0.40;0.30;;;;;;;10.80;100.00;100796.66;5035406;28;20475;-51
2021/12/31 09:15:03;;;;;;;0.30;0.20;;;;;;;10.93;100.00;100803.47;5024070;28;20475;-50
2021/12/31 09:17:30;;;;;;;0.30;0.30;;;;;;;11.13;100.00;100802.16;5035234;28;20525;-51
2021/12/31 09:19:57;;;;;;;0.30;0.20;;;;;;;11.23;100.00;100806.34;5035360;28;20474;-51
2021/12/31 09:22:25;;;;;;;0.30;0.20;;;;;;;11.45;100.00;100807.59;5021763;28;20541;-51
2021/12/31 09:24:55;;;;;;;0.30;0.20;;;;;;;11.79;100.00;100801.50;5029072;28;20453;-50
2021/12/31 09:27:22;;;;;;;0.30;0.20;;;;;;;11.76;100.00;100804.19;5032860;28;20437;-51
2021/12/31 09:29:48;;;;;;;0.30;0.20;;;;;;;11.85;100.00;100802.19;5022122;28;20777;-51
2021/12/31 09:32:15;;;;;;;0.30;0.20;;;;;;;11.87;100.00;100796.81;5023762;28;20471;-50
2021/12/31 09:34:44;;;;;;;0.30;0.20;;;;;;;11.92;100.00;100794.03;5026782;28;21012;-50
2021/12/31 09:37:11;;;;;;;0.30;0.20;;;;;;;11.94;100.00;100787.78;5025962;28;20439;-51
2021/12/31 09:39:38;;;;;;;0.30;0.20;;;;;;;12.00;100.00;100795.59;5015259;28;20436;-51
2021/12/31 09:42:06;;;;;;;0.30;0.20;;;;;;;12.34;100.00;100787.59;5017043;28;21001;-51
2021/12/31 09:44:34;;;;;;;0.30;0.20;;;;;;;12.54;100.00;100794.13;5003893;28;20426;-51
2021/12/31 09:47:07;;;;;;;0.30;0.20;;;;;;;12.58;100.00;100801.97;5027733;28;20494;-50
2021/12/31 09:49:35;;;;;;;0.30;0.20;;;;;;;12.55;100.00;100794.09;5029112;28;20502;-50
2021/12/31 09:52:02;;;;;;;0.40;0.40;;;;;;;12.62;100.00;100806.34;5026484;28;20495;-51
2021/12/31 09:54:29;;;;;;;0.30;0.20;;;;;;;12.77;100.00;100812.16;5024635;28;20883;-51
2021/12/31 09:56:56;;;;;;;0.30;0.20;;;;;;;12.68;100.00;100811.47;5018292;28;20519;-51
2021/12/31 09:59:24;;;;;;;0.30;0.20;;;;;;;12.45;100.00;100803.25;5025053;28;20450;-50
2021/12/31 10:01:52;;;;;;;0.30;0.20;;;;;;;12.60;100.00;100809.94;5014859;28;20467;-51
2021/12/31 10:04:20;;;;;;;0.30;0.20;;;;;;;12.77;100.00;100821.03;5017823;28;20538;-51
2021/12/31 10:07:05;;;;;;;0.30;0.20;;;;;;;12.61;100.00;100809.94;4994262;28;20473;-50
2021/12/31 10:09:36;;;;;;;0.30;0.20;;;;;;;12.67;100.00;100812.41;5018248;28;20883;-51
2021/12/31 10:12:08;;;;;;;0.30;0.20;;;;;;;12.62;100.00;100811.66;5023891;28;20460;-51
2021/12/31 10:14:37;;;;;;;0.30;0.20;;;;;;;12.71;100.00;100814.06;5027146;28;20463;-51
2021/12/31 10:17:09;;;;;;;0.57;0.57;;;;;;;12.96;100.00;100802.66;5023665;28;20492;-51
2021/12/31 10:19:36;;;;;;;0.30;0.20;;;;;;;12.95;100.00;100814.25;5028283;28;20945;-51
2021/12/31 10:22:03;;;;;;;0.30;0.20;;;;;;;12.76;100.00;100821.94;5023784;28;20544;-51
2021/12/31 10:24:34;;;;;;;0.30;0.20;;;;;;;12.84;100.00;100816.38;5028475;28;20458;-51
2021/12/31 10:27:16;;;;;;;0.30;0.20;;;;;;;12.85;100.00;100832.31;5031030;28;20452;-51
2021/12/31 10:29:57;;;;;;;0.30;0.20;;;;;;;12.78;100.00;100838.78;5032245;28;20505;-51
2021/12/31 10:32:29;;;;;;;0.30;0.20;;;;;;;13.04;100.00;100835.34;5033026;28;20495;-51
2021/12/31 10:35:12;;;;;;;0.30;0.20;;;;;;;13.22;100.00;100831.28;5033879;28;20447;-51
2021/12/31 10:37:50;;;;;;;0.30;0.20;;;;;;;13.21;100.00;100832.19;5032786;28;20447;-51
2021/12/31 10:40:39;;;;;;;0.30;0.20;;;;;;;13.22;100.00;100837.47;5010415;28;20484;-51
2021/12/31 10:43:25;;;;;;;0.30;0.20;;;;;;;13.07;100.00;100829.91;5033585;28;21056;-51
2021/12/31 10:46:07;;;;;;;0.30;0.20;;;;;;;13.14;100.00;100817.25;5033546;28;20464;-50
2021/12/31 10:48:37;;;;;;;0.30;0.20;;;;;;;13.36;100.00;100831.72;5030302;28;20533;-51
2021/12/31 10:51:04;;;;;;;0.30;0.20;;;;;;;13.20;100.00;100835.78;5016244;28;20476;-51
2021/12/31 10:53:34;;;;;;;0.30;0.20;;;;;;;13.14;100.00;100850.13;5026885;28;20475;-51
2021/12/31 10:56:13;;;;;;;0.30;0.20;;;;;;;13.05;100.00;100858.44;5015611;28;21008;-51
2021/12/31 10:58:44;;;;;;;0.30;0.20;;;;;;;13.11;100.00;100858.25;5023412;28;20479;-51
2021/12/31 11:01:14;;;;;;;0.30;0.20;;;;;;;13.30;100.00;100843.47;5019361;28;20427;-51
2021/12/31 11:03:42;;;;;;;0.30;0.20;;;;;;;13.22;100.00;100815.25;5014350;28;20451;-51
2021/12/31 11:06:13;;;;;;;0.30;0.20;;;;;;;13.40;100.00;100797.78;5009877;28;20444;-51
2021/12/31 11:08:49;;;;;;;0.30;0.20;;;;;;;13.50;100.00;100785.88;5032822;28;20451;-52
2021/12/31 11:11:19;;;;;;;0.30;0.20;;;;;;;13.80;100.00;100781.31;5022195;28;20451;-51
2021/12/31 11:13:46;;;;;;;0.30;0.20;;;;;;;13.82;100.00;100790.13;5032847;28;20450;-51
2021/12/31 11:16:14;;;;;;;0.30;0.20;;;;;;;13.73;100.00;100799.34;5033108;28;20451;-51
2021/12/31 11:18:41;;;;;;;0.30;0.20;;;;;;;13.65;100.00;100801.41;5033120;28;20438;-51
2021/12/31 11:21:09;;;;;;;0.30;0.20;;;;;;;13.71;100.00;100808.34;5030397;28;20506;-51
2021/12/31 11:23:36;;;;;;;0.30;0.20;;;;;;;13.64;100.00;100805.00;5029544;28;20479;-51
2021/12/31 11:26:07;;;;;;;0.30;0.20;;;;;;;13.69;100.00;100800.34;5043531;23;20561;-52